sensor_id;sensor_type;location;lat;lon;timestamp;P1;durP1;ratioP1;P2;durP2;ratioP2
6755;SDS011;3415;51.148;7.014;2023-04-07T00:00:58;17.93;;;8.00;;
6755;SDS011;3415;51.148;7.014;2023-04-07T00:03:24;14.63;;;7.40;;
6755;SDS011;3415;51.148;7.014;2023-04-07T00:05:53;17.30;;;7.13;;
6755;SDS011;3415;51.148;7.014;2023-04-07T00:08:19;19.83;;;8.03;;
6755;SDS011;3415;51.148;7.014;2023-04-07T00:10:46;14.97;;;6.83;;
6755;SDS011;3415;51.148;7.014;2023-04-07T00:13:13;19.47;;;8.40;;
6755;SDS011;3415;51.148;7.014;2023-04-07T00:15:40;14.37;;;8.10;;
6755;SDS011;3415;51.148;7.014;2023-04-07T00:18:07;15.63;;;8.03;;
6755;SDS011;3415;51.148;7.014;2023-04-07T00:20:33;14.70;;;8.10;;
6755;SDS011;3415;51.148;7.014;2023-04-07T00:23:02;18.80;;;8.73;;
6755;SDS011;3415;51.148;7.014;2023-04-07T00:25:28;18.70;;;8.10;;
6755;SDS011;3415;51.148;7.014;2023-04-07T00:27:55;16.00;;;8.53;;
6755;SDS011;3415;51.148;7.014;2023-04-07T00:30:22;16.73;;;8.73;;
6755;SDS011;3415;51.148;7.014;2023-04-07T00:32:49;14.97;;;7.47;;
6755;SDS011;3415;51.148;7.014;2023-04-07T00:35:16;15.90;;;8.57;;
6755;SDS011;3415;51.148;7.014;2023-04-07T00:37:43;17.60;;;9.17;;
6755;SDS011;3415;51.148;7.014;2023-04-07T00:40:11;21.27;;;10.30;;
6755;SDS011;3415;51.148;7.014;2023-04-07T00:42:38;16.30;;;7.93;;
6755;SDS011;3415;51.148;7.014;2023-04-07T00:45:06;18.70;;;8.90;;
6755;SDS011;3415;51.148;7.014;2023-04-07T00:47:34;19.77;;;9.10;;
6755;SDS011;3415;51.148;7.014;2023-04-07T00:50:02;15.93;;;7.83;;
6755;SDS011;3415;51.148;7.014;2023-04-07T00:52:29;17.87;;;9.37;;
6755;SDS011;3415;51.148;7.014;2023-04-07T00:54:58;19.10;;;7.73;;
6755;SDS011;3415;51.148;7.014;2023-04-07T00:57:26;28.20;;;10.10;;
6755;SDS011;3415;51.148;7.014;2023-04-07T00:59:53;14.80;;;8.40;;
6755;SDS011;3415;51.148;7.014;2023-04-07T01:02:22;16.20;;;9.23;;
6755;SDS011;3415;51.148;7.014;2023-04-07T01:04:58;22.53;;;10.13;;
6755;SDS011;3415;51.148;7.014;2023-04-07T01:07:33;16.40;;;8.43;;
6755;SDS011;3415;51.148;7.014;2023-04-07T01:10:05;19.60;;;8.60;;
6755;SDS011;3415;51.148;7.014;2023-04-07T01:12:42;17.20;;;7.63;;
6755;SDS011;3415;51.148;7.014;2023-04-07T01:15:15;17.30;;;7.83;;
6755;SDS011;3415;51.148;7.014;2023-04-07T01:17:47;23.70;;;10.13;;
6755;SDS011;3415;51.148;7.014;2023-04-07T01:20:18;19.30;;;9.60;;
6755;SDS011;3415;51.148;7.014;2023-04-07T01:22:49;19.63;;;8.60;;
6755;SDS011;3415;51.148;7.014;2023-04-07T01:25:25;16.63;;;9.10;;
6755;SDS011;3415;51.148;7.014;2023-04-07T01:28:09;16.10;;;8.90;;
6755;SDS011;3415;51.148;7.014;2023-04-07T01:30:49;17.27;;;8.90;;
6755;SDS011;3415;51.148;7.014;2023-04-07T01:33:19;17.40;;;9.40;;
6755;SDS011;3415;51.148;7.014;2023-04-07T01:35:46;18.20;;;9.50;;
6755;SDS011;3415;51.148;7.014;2023-04-07T01:38:15;18.50;;;9.83;;
6755;SDS011;3415;51.148;7.014;2023-04-07T01:40:43;17.60;;;9.23;;
6755;SDS011;3415;51.148;7.014;2023-04-07T01:43:10;19.50;;;9.57;;
6755;SDS011;3415;51.148;7.014;2023-04-07T01:45:38;17.07;;;8.77;;
6755;SDS011;3415;51.148;7.014;2023-04-07T01:48:08;15.60;;;8.30;;
6755;SDS011;3415;51.148;7.014;2023-04-07T01:50:36;19.20;;;9.00;;
6755;SDS011;3415;51.148;7.014;2023-04-07T01:53:04;19.93;;;8.50;;
6755;SDS011;3415;51.148;7.014;2023-04-07T01:55:32;17.57;;;9.70;;
6755;SDS011;3415;51.148;7.014;2023-04-07T01:58:02;19.20;;;9.73;;
6755;SDS011;3415;51.148;7.014;2023-04-07T02:00:30;20.30;;;10.93;;
6755;SDS011;3415;51.148;7.014;2023-04-07T02:02:58;16.53;;;9.50;;
6755;SDS011;3415;51.148;7.014;2023-04-07T02:05:35;19.27;;;10.30;;
6755;SDS011;3415;51.148;7.014;2023-04-07T02:08:06;23.03;;;10.77;;
6755;SDS011;3415;51.148;7.014;2023-04-07T02:10:36;20.80;;;9.77;;
6755;SDS011;3415;51.148;7.014;2023-04-07T02:13:04;23.20;;;10.00;;
6755;SDS011;3415;51.148;7.014;2023-04-07T02:15:34;18.77;;;10.30;;
6755;SDS011;3415;51.148;7.014;2023-04-07T02:18:02;16.47;;;9.90;;
6755;SDS011;3415;51.148;7.014;2023-04-07T02:20:29;24.03;;;10.60;;
6755;SDS011;3415;51.148;7.014;2023-04-07T02:22:58;16.60;;;9.60;;
6755;SDS011;3415;51.148;7.014;2023-04-07T02:25:25;18.90;;;9.77;;
6755;SDS011;3415;51.148;7.014;2023-04-07T02:27:54;25.10;;;10.90;;
6755;SDS011;3415;51.148;7.014;2023-04-07T02:30:22;20.20;;;10.83;;
6755;SDS011;3415;51.148;7.014;2023-04-07T02:32:50;20.60;;;11.37;;
6755;SDS011;3415;51.148;7.014;2023-04-07T02:35:17;20.93;;;10.50;;
6755;SDS011;3415;51.148;7.014;2023-04-07T02:37:44;22.63;;;10.40;;
6755;SDS011;3415;51.148;7.014;2023-04-07T02:40:13;21.03;;;11.07;;
6755;SDS011;3415;51.148;7.014;2023-04-07T02:42:40;20.50;;;10.40;;
6755;SDS011;3415;51.148;7.014;2023-04-07T02:45:08;23.40;;;11.30;;
6755;SDS011;3415;51.148;7.014;2023-04-07T02:47:36;19.30;;;10.40;;
6755;SDS011;3415;51.148;7.014;2023-04-07T02:50:03;19.70;;;10.37;;
6755;SDS011;3415;51.148;7.014;2023-04-07T02:52:31;19.77;;;9.70;;
6755;SDS011;3415;51.148;7.014;2023-04-07T02:54:58;18.73;;;10.97;;
6755;SDS011;3415;51.148;7.014;2023-04-07T02:57:26;28.70;;;12.00;;
6755;SDS011;3415;51.148;7.014;2023-04-07T02:59:53;24.17;;;11.80;;
6755;SDS011;3415;51.148;7.014;2023-04-07T03:02:22;29.50;;;12.10;;
6755;SDS011;3415;51.148;7.014;2023-04-07T03:04:49;24.23;;;11.97;;
6755;SDS011;3415;51.148;7.014;2023-04-07T03:07:16;29.20;;;13.10;;
6755;SDS011;3415;51.148;7.014;2023-04-07T03:09:43;28.60;;;13.57;;
6755;SDS011;3415;51.148;7.014;2023-04-07T03:12:10;23.43;;;12.27;;
6755;SDS011;3415;51.148;7.014;2023-04-07T03:14:38;25.80;;;13.00;;
6755;SDS011;3415;51.148;7.014;2023-04-07T03:17:05;25.40;;;12.87;;
6755;SDS011;3415;51.148;7.014;2023-04-07T03:19:32;27.77;;;13.80;;
6755;SDS011;3415;51.148;7.014;2023-04-07T03:21:58;29.53;;;13.90;;
6755;SDS011;3415;51.148;7.014;2023-04-07T03:24:25;25.20;;;13.10;;
6755;SDS011;3415;51.148;7.014;2023-04-07T03:26:52;23.63;;;13.23;;
6755;SDS011;3415;51.148;7.014;2023-04-07T03:29:20;27.90;;;12.80;;
6755;SDS011;3415;51.148;7.014;2023-04-07T03:31:48;33.63;;;15.50;;
6755;SDS011;3415;51.148;7.014;2023-04-07T03:34:15;29.93;;;13.77;;
6755;SDS011;3415;51.148;7.014;2023-04-07T03:36:42;33.00;;;14.33;;
6755;SDS011;3415;51.148;7.014;2023-04-07T03:39:08;34.10;;;15.40;;
6755;SDS011;3415;51.148;7.014;2023-04-07T03:41:35;31.87;;;14.33;;
6755;SDS011;3415;51.148;7.014;2023-04-07T03:44:02;29.67;;;13.67;;
6755;SDS011;3415;51.148;7.014;2023-04-07T03:46:29;31.23;;;14.40;;
6755;SDS011;3415;51.148;7.014;2023-04-07T03:48:57;31.17;;;14.07;;
6755;SDS011;3415;51.148;7.014;2023-04-07T03:51:24;33.77;;;16.00;;
6755;SDS011;3415;51.148;7.014;2023-04-07T03:53:52;37.37;;;14.90;;
6755;SDS011;3415;51.148;7.014;2023-04-07T03:56:19;40.87;;;15.07;;
6755;SDS011;3415;51.148;7.014;2023-04-07T03:58:46;29.83;;;12.53;;
6755;SDS011;3415;51.148;7.014;2023-04-07T04:01:13;30.37;;;13.20;;
6755;SDS011;3415;51.148;7.014;2023-04-07T04:03:41;33.10;;;13.63;;
6755;SDS011;3415;51.148;7.014;2023-04-07T04:06:09;29.77;;;13.70;;
6755;SDS011;3415;51.148;7.014;2023-04-07T04:08:36;34.33;;;12.30;;
6755;SDS011;3415;51.148;7.014;2023-04-07T04:11:02;31.57;;;11.60;;
6755;SDS011;3415;51.148;7.014;2023-04-07T04:13:29;29.00;;;12.47;;
6755;SDS011;3415;51.148;7.014;2023-04-07T04:15:56;33.57;;;12.27;;
6755;SDS011;3415;51.148;7.014;2023-04-07T04:18:23;41.20;;;13.17;;
6755;SDS011;3415;51.148;7.014;2023-04-07T04:20:50;30.60;;;11.53;;
6755;SDS011;3415;51.148;7.014;2023-04-07T04:23:18;28.97;;;11.33;;
6755;SDS011;3415;51.148;7.014;2023-04-07T04:25:45;29.30;;;10.37;;
6755;SDS011;3415;51.148;7.014;2023-04-07T04:28:12;30.87;;;12.30;;
6755;SDS011;3415;51.148;7.014;2023-04-07T04:30:38;30.50;;;10.60;;
6755;SDS011;3415;51.148;7.014;2023-04-07T04:33:05;29.67;;;11.70;;
6755;SDS011;3415;51.148;7.014;2023-04-07T04:35:32;27.03;;;10.70;;
6755;SDS011;3415;51.148;7.014;2023-04-07T04:38:00;32.07;;;10.80;;
6755;SDS011;3415;51.148;7.014;2023-04-07T04:40:28;32.23;;;12.73;;
6755;SDS011;3415;51.148;7.014;2023-04-07T04:42:55;28.13;;;11.47;;
6755;SDS011;3415;51.148;7.014;2023-04-07T04:45:22;30.53;;;13.27;;
6755;SDS011;3415;51.148;7.014;2023-04-07T04:47:48;24.97;;;10.83;;
6755;SDS011;3415;51.148;7.014;2023-04-07T04:50:15;30.03;;;10.73;;
6755;SDS011;3415;51.148;7.014;2023-04-07T04:52:42;26.60;;;10.53;;
6755;SDS011;3415;51.148;7.014;2023-04-07T04:55:09;38.57;;;12.20;;
6755;SDS011;3415;51.148;7.014;2023-04-07T04:57:38;28.03;;;11.63;;
6755;SDS011;3415;51.148;7.014;2023-04-07T05:00:05;30.10;;;11.50;;
6755;SDS011;3415;51.148;7.014;2023-04-07T05:02:34;25.77;;;10.43;;
6755;SDS011;3415;51.148;7.014;2023-04-07T05:05:01;26.90;;;11.20;;
6755;SDS011;3415;51.148;7.014;2023-04-07T05:07:28;28.93;;;10.67;;
6755;SDS011;3415;51.148;7.014;2023-04-07T05:09:55;26.70;;;9.40;;
6755;SDS011;3415;51.148;7.014;2023-04-07T05:12:22;33.77;;;11.27;;
6755;SDS011;3415;51.148;7.014;2023-04-07T05:14:50;28.63;;;13.07;;
6755;SDS011;3415;51.148;7.014;2023-04-07T05:17:17;36.33;;;11.63;;
6755;SDS011;3415;51.148;7.014;2023-04-07T05:19:43;31.07;;;11.67;;
6755;SDS011;3415;51.148;7.014;2023-04-07T05:22:10;25.83;;;10.43;;
6755;SDS011;3415;51.148;7.014;2023-04-07T05:24:37;27.67;;;10.63;;
6755;SDS011;3415;51.148;7.014;2023-04-07T05:27:04;33.10;;;11.80;;
6755;SDS011;3415;51.148;7.014;2023-04-07T05:29:31;24.23;;;10.43;;
6755;SDS011;3415;51.148;7.014;2023-04-07T05:31:59;23.93;;;9.80;;
6755;SDS011;3415;51.148;7.014;2023-04-07T05:34:26;22.77;;;9.97;;
6755;SDS011;3415;51.148;7.014;2023-04-07T05:36:53;24.57;;;10.03;;
6755;SDS011;3415;51.148;7.014;2023-04-07T05:39:20;24.87;;;9.90;;
6755;SDS011;3415;51.148;7.014;2023-04-07T05:41:47;26.17;;;10.53;;
6755;SDS011;3415;51.148;7.014;2023-04-07T05:44:13;24.43;;;9.90;;
6755;SDS011;3415;51.148;7.014;2023-04-07T05:46:40;19.80;;;8.73;;
6755;SDS011;3415;51.148;7.014;2023-04-07T05:49:08;21.40;;;8.70;;
6755;SDS011;3415;51.148;7.014;2023-04-07T05:51:35;19.03;;;7.63;;
6755;SDS011;3415;51.148;7.014;2023-04-07T05:54:02;22.23;;;9.00;;
6755;SDS011;3415;51.148;7.014;2023-04-07T05:56:29;21.70;;;8.37;;
6755;SDS011;3415;51.148;7.014;2023-04-07T05:58:56;16.80;;;7.23;;
6755;SDS011;3415;51.148;7.014;2023-04-07T06:01:24;41.90;;;17.70;;
6755;SDS011;3415;51.148;7.014;2023-04-07T06:03:51;39.00;;;14.20;;
6755;SDS011;3415;51.148;7.014;2023-04-07T06:06:19;33.93;;;12.87;;
6755;SDS011;3415;51.148;7.014;2023-04-07T06:08:46;51.77;;;16.83;;
6755;SDS011;3415;51.148;7.014;2023-04-07T06:11:13;42.00;;;17.13;;
6755;SDS011;3415;51.148;7.014;2023-04-07T06:13:40;31.10;;;10.70;;
6755;SDS011;3415;51.148;7.014;2023-04-07T06:16:07;32.47;;;11.37;;
6755;SDS011;3415;51.148;7.014;2023-04-07T06:18:34;46.03;;;15.60;;
6755;SDS011;3415;51.148;7.014;2023-04-07T06:21:00;28.73;;;10.67;;
6755;SDS011;3415;51.148;7.014;2023-04-07T06:23:29;30.07;;;10.97;;
6755;SDS011;3415;51.148;7.014;2023-04-07T06:25:55;32.43;;;15.37;;
6755;SDS011;3415;51.148;7.014;2023-04-07T06:28:22;23.13;;;7.87;;
6755;SDS011;3415;51.148;7.014;2023-04-07T06:30:49;18.03;;;7.80;;
6755;SDS011;3415;51.148;7.014;2023-04-07T06:33:16;15.00;;;6.87;;
6755;SDS011;3415;51.148;7.014;2023-04-07T06:35:43;18.47;;;7.60;;
6755;SDS011;3415;51.148;7.014;2023-04-07T06:38:10;12.67;;;6.27;;
6755;SDS011;3415;51.148;7.014;2023-04-07T06:40:39;19.63;;;7.30;;
6755;SDS011;3415;51.148;7.014;2023-04-07T06:43:05;20.70;;;7.20;;
6755;SDS011;3415;51.148;7.014;2023-04-07T06:45:32;15.27;;;6.50;;
6755;SDS011;3415;51.148;7.014;2023-04-07T06:47:59;15.97;;;6.07;;
6755;SDS011;3415;51.148;7.014;2023-04-07T06:50:26;19.43;;;6.30;;
6755;SDS011;3415;51.148;7.014;2023-04-07T06:52:53;21.57;;;7.50;;
6755;SDS011;3415;51.148;7.014;2023-04-07T06:55:20;23.50;;;8.97;;
6755;SDS011;3415;51.148;7.014;2023-04-07T06:57:48;19.23;;;7.50;;
6755;SDS011;3415;51.148;7.014;2023-04-07T07:00:16;26.03;;;7.33;;
6755;SDS011;3415;51.148;7.014;2023-04-07T07:02:44;22.03;;;8.27;;
6755;SDS011;3415;51.148;7.014;2023-04-07T07:05:10;21.13;;;8.77;;
6755;SDS011;3415;51.148;7.014;2023-04-07T07:07:37;27.93;;;9.00;;
6755;SDS011;3415;51.148;7.014;2023-04-07T07:10:04;21.67;;;7.40;;
6755;SDS011;3415;51.148;7.014;2023-04-07T07:12:33;21.67;;;7.80;;
6755;SDS011;3415;51.148;7.014;2023-04-07T07:15:02;24.73;;;8.23;;
6755;SDS011;3415;51.148;7.014;2023-04-07T07:17:29;27.77;;;7.63;;
6755;SDS011;3415;51.148;7.014;2023-04-07T07:19:56;23.03;;;8.80;;
6755;SDS011;3415;51.148;7.014;2023-04-07T07:22:23;18.07;;;8.47;;
6755;SDS011;3415;51.148;7.014;2023-04-07T07:24:51;24.07;;;8.63;;
6755;SDS011;3415;51.148;7.014;2023-04-07T07:27:18;20.23;;;7.30;;
6755;SDS011;3415;51.148;7.014;2023-04-07T07:29:44;26.63;;;8.73;;
6755;SDS011;3415;51.148;7.014;2023-04-07T07:32:13;22.70;;;8.90;;
6755;SDS011;3415;51.148;7.014;2023-04-07T07:34:40;22.63;;;9.17;;
6755;SDS011;3415;51.148;7.014;2023-04-07T07:37:06;25.27;;;7.87;;
6755;SDS011;3415;51.148;7.014;2023-04-07T07:39:33;16.97;;;6.67;;
6755;SDS011;3415;51.148;7.014;2023-04-07T07:42:00;21.83;;;7.50;;
6755;SDS011;3415;51.148;7.014;2023-04-07T07:44:27;21.27;;;8.27;;
6755;SDS011;3415;51.148;7.014;2023-04-07T07:46:54;18.30;;;7.23;;
6755;SDS011;3415;51.148;7.014;2023-04-07T07:49:22;22.57;;;8.10;;
6755;SDS011;3415;51.148;7.014;2023-04-07T07:51:49;21.17;;;7.43;;
6755;SDS011;3415;51.148;7.014;2023-04-07T07:54:16;22.57;;;8.70;;
6755;SDS011;3415;51.148;7.014;2023-04-07T07:56:42;27.73;;;8.43;;
6755;SDS011;3415;51.148;7.014;2023-04-07T07:59:09;19.50;;;7.30;;
6755;SDS011;3415;51.148;7.014;2023-04-07T08:01:36;16.60;;;8.07;;
6755;SDS011;3415;51.148;7.014;2023-04-07T08:04:03;21.57;;;7.50;;
6755;SDS011;3415;51.148;7.014;2023-04-07T08:06:31;17.63;;;7.00;;
6755;SDS011;3415;51.148;7.014;2023-04-07T08:08:58;18.50;;;6.73;;
6755;SDS011;3415;51.148;7.014;2023-04-07T08:11:25;26.93;;;6.77;;
6755;SDS011;3415;51.148;7.014;2023-04-07T08:13:52;23.33;;;6.80;;
6755;SDS011;3415;51.148;7.014;2023-04-07T08:16:19;29.87;;;8.90;;
6755;SDS011;3415;51.148;7.014;2023-04-07T08:18:47;34.10;;;12.53;;
6755;SDS011;3415;51.148;7.014;2023-04-07T08:21:14;25.40;;;8.93;;
6755;SDS011;3415;51.148;7.014;2023-04-07T08:23:42;21.17;;;9.23;;
6755;SDS011;3415;51.148;7.014;2023-04-07T08:26:10;21.33;;;8.00;;
6755;SDS011;3415;51.148;7.014;2023-04-07T08:28:37;32.23;;;6.97;;
6755;SDS011;3415;51.148;7.014;2023-04-07T08:31:04;20.63;;;9.10;;
6755;SDS011;3415;51.148;7.014;2023-04-07T08:33:31;17.67;;;7.50;;
6755;SDS011;3415;51.148;7.014;2023-04-07T08:35:58;18.20;;;8.03;;
6755;SDS011;3415;51.148;7.014;2023-04-07T08:38:24;16.23;;;7.40;;
6755;SDS011;3415;51.148;7.014;2023-04-07T08:40:53;15.77;;;7.40;;
6755;SDS011;3415;51.148;7.014;2023-04-07T08:43:24;22.07;;;7.70;;
6755;SDS011;3415;51.148;7.014;2023-04-07T08:45:54;18.70;;;7.80;;
6755;SDS011;3415;51.148;7.014;2023-04-07T08:48:23;20.60;;;7.93;;
6755;SDS011;3415;51.148;7.014;2023-04-07T08:50:52;19.97;;;7.20;;
6755;SDS011;3415;51.148;7.014;2023-04-07T08:53:23;26.70;;;9.20;;
6755;SDS011;3415;51.148;7.014;2023-04-07T08:55:57;17.47;;;7.60;;
6755;SDS011;3415;51.148;7.014;2023-04-07T08:58:26;14.10;;;6.80;;
6755;SDS011;3415;51.148;7.014;2023-04-07T09:00:53;20.07;;;7.97;;
6755;SDS011;3415;51.148;7.014;2023-04-07T09:03:20;19.03;;;8.23;;
6755;SDS011;3415;51.148;7.014;2023-04-07T09:05:49;29.50;;;7.30;;
6755;SDS011;3415;51.148;7.014;2023-04-07T09:08:17;20.83;;;9.37;;
6755;SDS011;3415;51.148;7.014;2023-04-07T09:10:44;19.10;;;7.67;;
6755;SDS011;3415;51.148;7.014;2023-04-07T09:13:12;21.33;;;8.33;;
6755;SDS011;3415;51.148;7.014;2023-04-07T09:15:39;21.37;;;8.10;;
6755;SDS011;3415;51.148;7.014;2023-04-07T09:18:06;27.77;;;7.70;;
6755;SDS011;3415;51.148;7.014;2023-04-07T09:23:28;22.03;;;7.87;;
6755;SDS011;3415;51.148;7.014;2023-04-07T09:25:56;16.20;;;7.27;;
6755;SDS011;3415;51.148;7.014;2023-04-07T09:28:38;18.50;;;8.30;;
6755;SDS011;3415;51.148;7.014;2023-04-07T09:31:07;15.27;;;6.60;;
6755;SDS011;3415;51.148;7.014;2023-04-07T09:33:34;21.47;;;8.80;;
6755;SDS011;3415;51.148;7.014;2023-04-07T09:36:01;27.97;;;7.67;;
6755;SDS011;3415;51.148;7.014;2023-04-07T09:38:31;20.07;;;7.97;;
6755;SDS011;3415;51.148;7.014;2023-04-07T09:41:06;20.27;;;7.83;;
6755;SDS011;3415;51.148;7.014;2023-04-07T09:43:34;17.67;;;7.40;;
6755;SDS011;3415;51.148;7.014;2023-04-07T09:46:11;16.80;;;6.73;;
6755;SDS011;3415;51.148;7.014;2023-04-07T09:48:39;17.17;;;7.10;;
6755;SDS011;3415;51.148;7.014;2023-04-07T09:51:08;15.77;;;6.33;;
6755;SDS011;3415;51.148;7.014;2023-04-07T09:53:40;22.83;;;7.37;;
6755;SDS011;3415;51.148;7.014;2023-04-07T09:56:08;16.20;;;6.57;;
6755;SDS011;3415;51.148;7.014;2023-04-07T09:58:37;18.47;;;7.20;;
6755;SDS011;3415;51.148;7.014;2023-04-07T10:01:05;19.53;;;8.40;;
6755;SDS011;3415;51.148;7.014;2023-04-07T10:03:34;21.20;;;6.83;;
6755;SDS011;3415;51.148;7.014;2023-04-07T10:06:02;18.10;;;6.93;;
6755;SDS011;3415;51.148;7.014;2023-04-07T10:08:31;19.93;;;8.77;;
6755;SDS011;3415;51.148;7.014;2023-04-07T10:11:00;23.43;;;8.23;;
6755;SDS011;3415;51.148;7.014;2023-04-07T10:13:28;19.70;;;7.30;;
6755;SDS011;3415;51.148;7.014;2023-04-07T10:15:56;23.37;;;7.30;;
6755;SDS011;3415;51.148;7.014;2023-04-07T10:18:24;15.27;;;6.63;;
6755;SDS011;3415;51.148;7.014;2023-04-07T10:20:56;16.33;;;7.07;;
6755;SDS011;3415;51.148;7.014;2023-04-07T10:23:28;23.57;;;7.60;;
6755;SDS011;3415;51.148;7.014;2023-04-07T10:26:02;13.73;;;7.33;;
6755;SDS011;3415;51.148;7.014;2023-04-07T10:28:31;18.47;;;9.27;;
6755;SDS011;3415;51.148;7.014;2023-04-07T10:31:00;19.63;;;7.67;;
6755;SDS011;3415;51.148;7.014;2023-04-07T10:33:43;19.93;;;7.57;;
6755;SDS011;3415;51.148;7.014;2023-04-07T10:36:12;27.37;;;9.00;;
6755;SDS011;3415;51.148;7.014;2023-04-07T10:38:39;30.03;;;9.73;;
6755;SDS011;3415;51.148;7.014;2023-04-07T10:43:58;30.13;;;9.57;;
6755;SDS011;3415;51.148;7.014;2023-04-07T10:46:30;23.30;;;11.13;;
6755;SDS011;3415;51.148;7.014;2023-04-07T10:49:31;24.13;;;8.60;;
6755;SDS011;3415;51.148;7.014;2023-04-07T10:54:48;23.30;;;9.03;;
6755;SDS011;3415;51.148;7.014;2023-04-07T10:58:13;20.57;;;8.43;;
6755;SDS011;3415;51.148;7.014;2023-04-07T11:03:56;27.27;;;9.07;;
6755;SDS011;3415;51.148;7.014;2023-04-07T11:06:25;25.30;;;8.73;;
6755;SDS011;3415;51.148;7.014;2023-04-07T11:08:52;24.10;;;8.37;;
6755;SDS011;3415;51.148;7.014;2023-04-07T11:11:33;21.93;;;9.10;;
6755;SDS011;3415;51.148;7.014;2023-04-07T11:14:05;22.73;;;9.07;;
6755;SDS011;3415;51.148;7.014;2023-04-07T11:16:36;27.03;;;9.60;;
6755;SDS011;3415;51.148;7.014;2023-04-07T11:19:06;17.03;;;7.80;;
6755;SDS011;3415;51.148;7.014;2023-04-07T11:21:33;22.00;;;8.90;;
6755;SDS011;3415;51.148;7.014;2023-04-07T11:24:00;19.13;;;7.80;;
6755;SDS011;3415;51.148;7.014;2023-04-07T11:26:27;20.93;;;8.93;;
6755;SDS011;3415;51.148;7.014;2023-04-07T11:28:55;20.20;;;7.70;;
6755;SDS011;3415;51.148;7.014;2023-04-07T11:31:23;21.33;;;9.10;;
6755;SDS011;3415;51.148;7.014;2023-04-07T11:33:51;22.67;;;9.57;;
6755;SDS011;3415;51.148;7.014;2023-04-07T11:36:27;16.27;;;7.00;;
6755;SDS011;3415;51.148;7.014;2023-04-07T11:38:56;18.73;;;8.50;;
6755;SDS011;3415;51.148;7.014;2023-04-07T11:41:24;20.40;;;7.70;;
6755;SDS011;3415;51.148;7.014;2023-04-07T11:44:05;16.53;;;8.33;;
6755;SDS011;3415;51.148;7.014;2023-04-07T11:46:33;19.37;;;7.60;;
6755;SDS011;3415;51.148;7.014;2023-04-07T11:49:07;21.90;;;8.80;;
6755;SDS011;3415;51.148;7.014;2023-04-07T11:51:37;15.93;;;7.30;;
6755;SDS011;3415;51.148;7.014;2023-04-07T11:54:04;17.10;;;8.00;;
6755;SDS011;3415;51.148;7.014;2023-04-07T11:56:40;23.67;;;8.10;;
6755;SDS011;3415;51.148;7.014;2023-04-07T11:59:08;24.20;;;8.37;;
6755;SDS011;3415;51.148;7.014;2023-04-07T12:01:47;17.17;;;7.60;;
6755;SDS011;3415;51.148;7.014;2023-04-07T12:04:15;17.87;;;8.00;;
6755;SDS011;3415;51.148;7.014;2023-04-07T12:06:44;21.83;;;8.20;;
6755;SDS011;3415;51.148;7.014;2023-04-07T12:09:25;18.43;;;8.60;;
6755;SDS011;3415;51.148;7.014;2023-04-07T12:11:53;18.17;;;7.17;;
6755;SDS011;3415;51.148;7.014;2023-04-07T12:14:21;20.10;;;7.67;;
6755;SDS011;3415;51.148;7.014;2023-04-07T12:16:48;15.70;;;6.33;;
6755;SDS011;3415;51.148;7.014;2023-04-07T12:19:16;14.13;;;7.70;;
6755;SDS011;3415;51.148;7.014;2023-04-07T12:21:44;14.47;;;7.30;;
6755;SDS011;3415;51.148;7.014;2023-04-07T12:24:11;13.60;;;7.03;;
6755;SDS011;3415;51.148;7.014;2023-04-07T12:26:38;16.93;;;7.90;;
6755;SDS011;3415;51.148;7.014;2023-04-07T12:29:05;16.60;;;7.10;;
6755;SDS011;3415;51.148;7.014;2023-04-07T12:31:32;15.90;;;7.00;;
6755;SDS011;3415;51.148;7.014;2023-04-07T12:33:59;13.33;;;6.93;;
6755;SDS011;3415;51.148;7.014;2023-04-07T12:36:26;18.63;;;7.33;;
6755;SDS011;3415;51.148;7.014;2023-04-07T12:38:54;17.57;;;8.40;;
6755;SDS011;3415;51.148;7.014;2023-04-07T12:41:23;11.60;;;5.57;;
6755;SDS011;3415;51.148;7.014;2023-04-07T12:43:50;15.63;;;6.73;;
6755;SDS011;3415;51.148;7.014;2023-04-07T12:46:18;26.67;;;7.47;;
6755;SDS011;3415;51.148;7.014;2023-04-07T12:48:45;14.60;;;6.93;;
6755;SDS011;3415;51.148;7.014;2023-04-07T12:51:13;17.17;;;7.10;;
6755;SDS011;3415;51.148;7.014;2023-04-07T12:53:40;14.23;;;6.40;;
6755;SDS011;3415;51.148;7.014;2023-04-07T12:56:09;13.97;;;6.97;;
6755;SDS011;3415;51.148;7.014;2023-04-07T12:58:37;12.60;;;6.50;;
6755;SDS011;3415;51.148;7.014;2023-04-07T13:01:04;13.50;;;5.77;;
6755;SDS011;3415;51.148;7.014;2023-04-07T13:03:31;17.60;;;7.70;;
6755;SDS011;3415;51.148;7.014;2023-04-07T13:05:58;15.63;;;6.93;;
6755;SDS011;3415;51.148;7.014;2023-04-07T13:08:26;14.73;;;7.60;;
6755;SDS011;3415;51.148;7.014;2023-04-07T13:10:53;16.47;;;8.60;;
6755;SDS011;3415;51.148;7.014;2023-04-07T13:13:22;15.53;;;7.90;;
6755;SDS011;3415;51.148;7.014;2023-04-07T13:15:49;21.60;;;7.87;;
6755;SDS011;3415;51.148;7.014;2023-04-07T13:18:17;15.53;;;8.00;;
6755;SDS011;3415;51.148;7.014;2023-04-07T13:20:44;21.17;;;7.40;;
6755;SDS011;3415;51.148;7.014;2023-04-07T13:23:11;18.17;;;7.43;;
6755;SDS011;3415;51.148;7.014;2023-04-07T13:25:38;15.63;;;6.70;;
6755;SDS011;3415;51.148;7.014;2023-04-07T13:28:05;18.60;;;6.77;;
6755;SDS011;3415;51.148;7.014;2023-04-07T13:30:34;15.37;;;7.27;;
6755;SDS011;3415;51.148;7.014;2023-04-07T13:33:01;13.47;;;7.57;;
6755;SDS011;3415;51.148;7.014;2023-04-07T13:35:28;13.17;;;7.00;;
6755;SDS011;3415;51.148;7.014;2023-04-07T13:37:59;19.47;;;7.20;;
6755;SDS011;3415;51.148;7.014;2023-04-07T13:40:26;12.90;;;7.00;;
6755;SDS011;3415;51.148;7.014;2023-04-07T13:42:53;15.67;;;7.50;;
6755;SDS011;3415;51.148;7.014;2023-04-07T13:45:20;18.60;;;9.00;;
6755;SDS011;3415;51.148;7.014;2023-04-07T13:47:49;18.20;;;8.40;;
6755;SDS011;3415;51.148;7.014;2023-04-07T13:50:15;15.43;;;6.67;;
6755;SDS011;3415;51.148;7.014;2023-04-07T13:52:42;13.83;;;7.03;;
6755;SDS011;3415;51.148;7.014;2023-04-07T13:55:09;15.73;;;7.33;;
6755;SDS011;3415;51.148;7.014;2023-04-07T13:57:36;14.70;;;7.77;;
6755;SDS011;3415;51.148;7.014;2023-04-07T14:00:03;15.87;;;6.43;;
6755;SDS011;3415;51.148;7.014;2023-04-07T14:02:31;11.00;;;6.30;;
6755;SDS011;3415;51.148;7.014;2023-04-07T14:04:59;14.67;;;7.37;;
6755;SDS011;3415;51.148;7.014;2023-04-07T14:07:26;14.80;;;6.70;;
6755;SDS011;3415;51.148;7.014;2023-04-07T14:09:53;14.40;;;7.30;;
6755;SDS011;3415;51.148;7.014;2023-04-07T14:12:20;11.97;;;5.30;;
6755;SDS011;3415;51.148;7.014;2023-04-07T14:14:47;14.70;;;6.63;;
6755;SDS011;3415;51.148;7.014;2023-04-07T14:17:16;13.77;;;6.33;;
6755;SDS011;3415;51.148;7.014;2023-04-07T14:19:42;16.20;;;8.37;;
6755;SDS011;3415;51.148;7.014;2023-04-07T14:22:11;13.57;;;6.37;;
6755;SDS011;3415;51.148;7.014;2023-04-07T14:24:38;11.17;;;6.40;;
6755;SDS011;3415;51.148;7.014;2023-04-07T14:27:05;16.53;;;6.77;;
6755;SDS011;3415;51.148;7.014;2023-04-07T14:29:32;14.50;;;6.87;;
6755;SDS011;3415;51.148;7.014;2023-04-07T14:31:59;13.00;;;5.73;;
6755;SDS011;3415;51.148;7.014;2023-04-07T14:34:26;11.73;;;6.73;;
6755;SDS011;3415;51.148;7.014;2023-04-07T14:36:53;13.30;;;6.73;;
6755;SDS011;3415;51.148;7.014;2023-04-07T14:39:24;12.63;;;6.33;;
6755;SDS011;3415;51.148;7.014;2023-04-07T14:41:51;16.77;;;6.77;;
6755;SDS011;3415;51.148;7.014;2023-04-07T14:44:18;10.27;;;6.60;;
6755;SDS011;3415;51.148;7.014;2023-04-07T14:46:45;15.00;;;6.60;;
6755;SDS011;3415;51.148;7.014;2023-04-07T14:49:12;11.67;;;6.60;;
6755;SDS011;3415;51.148;7.014;2023-04-07T14:51:39;12.87;;;6.80;;
6755;SDS011;3415;51.148;7.014;2023-04-07T14:54:06;16.53;;;6.70;;
6755;SDS011;3415;51.148;7.014;2023-04-07T14:56:34;12.10;;;6.27;;
6755;SDS011;3415;51.148;7.014;2023-04-07T14:59:01;18.10;;;6.80;;
6755;SDS011;3415;51.148;7.014;2023-04-07T15:01:28;17.43;;;7.07;;
6755;SDS011;3415;51.148;7.014;2023-04-07T15:03:55;16.67;;;7.60;;
6755;SDS011;3415;51.148;7.014;2023-04-07T15:06:24;16.67;;;7.90;;
6755;SDS011;3415;51.148;7.014;2023-04-07T15:08:51;16.07;;;6.93;;
6755;SDS011;3415;51.148;7.014;2023-04-07T15:11:18;14.50;;;7.50;;
6755;SDS011;3415;51.148;7.014;2023-04-07T15:13:47;11.00;;;6.77;;
6755;SDS011;3415;51.148;7.014;2023-04-07T15:16:14;13.47;;;6.50;;